sensor_id;sensor_type;location;lat;lon;timestamp;P1;durP1;ratioP1;P2;durP2;ratioP2
5823;SDS011;2938;52.254;12.988;2023-05-10T00:02:00;11.05;;;6.85;;
5823;SDS011;2938;52.254;12.988;2023-05-10T00:04:25;10.32;;;6.75;;
5823;SDS011;2938;52.254;12.988;2023-05-10T00:06:52;9.57;;;6.63;;
5823;SDS011;2938;52.254;12.988;2023-05-10T00:09:18;9.82;;;7.30;;
5823;SDS011;2938;52.254;12.988;2023-05-10T00:11:43;10.13;;;7.03;;
5823;SDS011;2938;52.254;12.988;2023-05-10T00:14:08;10.57;;;6.72;;
5823;SDS011;2938;52.254;12.988;2023-05-10T00:16:34;11.82;;;7.50;;
5823;SDS011;2938;52.254;12.988;2023-05-10T00:18:59;9.27;;;6.70;;
5823;SDS011;2938;52.254;12.988;2023-05-10T00:21:24;10.32;;;7.10;;
5823;SDS011;2938;52.254;12.988;2023-05-10T00:23:50;11.10;;;7.05;;
5823;SDS011;2938;52.254;12.988;2023-05-10T00:26:15;8.25;;;7.45;;
5823;SDS011;2938;52.254;12.988;2023-05-10T00:28:41;9.50;;;7.22;;
5823;SDS011;2938;52.254;12.988;2023-05-10T00:31:06;10.05;;;7.68;;
5823;SDS011;2938;52.254;12.988;2023-05-10T00:33:32;12.57;;;7.95;;
5823;SDS011;2938;52.254;12.988;2023-05-10T00:35:57;9.73;;;7.50;;
5823;SDS011;2938;52.254;12.988;2023-05-10T00:38:22;14.93;;;7.40;;
5823;SDS011;2938;52.254;12.988;2023-05-10T00:40:48;11.27;;;7.93;;
5823;SDS011;2938;52.254;12.988;2023-05-10T00:43:13;11.95;;;7.70;;
5823;SDS011;2938;52.254;12.988;2023-05-10T00:45:39;11.73;;;8.18;;
5823;SDS011;2938;52.254;12.988;2023-05-10T00:48:05;11.10;;;8.38;;
5823;SDS011;2938;52.254;12.988;2023-05-10T00:50:31;9.75;;;7.80;;
5823;SDS011;2938;52.254;12.988;2023-05-10T00:52:57;8.75;;;7.60;;
5823;SDS011;2938;52.254;12.988;2023-05-10T00:55:24;10.82;;;8.45;;
5823;SDS011;2938;52.254;12.988;2023-05-10T00:57:49;13.90;;;8.25;;
5823;SDS011;2938;52.254;12.988;2023-05-10T01:00:14;8.80;;;6.40;;
5823;SDS011;2938;52.254;12.988;2023-05-10T01:02:43;9.30;;;8.27;;
5823;SDS011;2938;52.254;12.988;2023-05-10T01:05:09;10.73;;;7.93;;
5823;SDS011;2938;52.254;12.988;2023-05-10T01:07:34;10.65;;;8.40;;
5823;SDS011;2938;52.254;12.988;2023-05-10T01:09:59;13.60;;;8.65;;
5823;SDS011;2938;52.254;12.988;2023-05-10T01:12:25;15.98;;;9.18;;
5823;SDS011;2938;52.254;12.988;2023-05-10T01:14:50;10.45;;;8.85;;
5823;SDS011;2938;52.254;12.988;2023-05-10T01:17:16;11.02;;;9.02;;
5823;SDS011;2938;52.254;12.988;2023-05-10T01:19:41;11.52;;;9.38;;
5823;SDS011;2938;52.254;12.988;2023-05-10T01:22:14;10.52;;;9.13;;
5823;SDS011;2938;52.254;12.988;2023-05-10T01:33:09;11.35;;;10.15;;
5823;SDS011;2938;52.254;12.988;2023-05-10T01:41:05;17.38;;;10.00;;
5823;SDS011;2938;52.254;12.988;2023-05-10T01:43:37;16.73;;;9.18;;
5823;SDS011;2938;52.254;12.988;2023-05-10T01:46:09;20.88;;;12.75;;
5823;SDS011;2938;52.254;12.988;2023-05-10T01:48:37;23.70;;;10.32;;
5823;SDS011;2938;52.254;12.988;2023-05-10T01:51:06;14.38;;;10.65;;
5823;SDS011;2938;52.254;12.988;2023-05-10T01:53:32;16.20;;;10.88;;
5823;SDS011;2938;52.254;12.988;2023-05-10T01:55:58;11.65;;;10.32;;
5823;SDS011;2938;52.254;12.988;2023-05-10T01:58:28;11.80;;;9.73;;
5823;SDS011;2938;52.254;12.988;2023-05-10T02:00:55;12.55;;;10.05;;
5823;SDS011;2938;52.254;12.988;2023-05-10T02:03:24;11.95;;;9.40;;
5823;SDS011;2938;52.254;12.988;2023-05-10T02:05:50;11.70;;;8.77;;
5823;SDS011;2938;52.254;12.988;2023-05-10T02:08:18;11.38;;;8.55;;
5823;SDS011;2938;52.254;12.988;2023-05-10T02:10:44;12.35;;;9.65;;
5823;SDS011;2938;52.254;12.988;2023-05-10T02:13:10;11.30;;;9.40;;
5823;SDS011;2938;52.254;12.988;2023-05-10T02:15:36;14.98;;;8.70;;
5823;SDS011;2938;52.254;12.988;2023-05-10T02:18:02;11.52;;;9.75;;
5823;SDS011;2938;52.254;12.988;2023-05-10T02:20:28;11.25;;;7.68;;
5823;SDS011;2938;52.254;12.988;2023-05-10T02:22:55;38.83;;;9.77;;
5823;SDS011;2938;52.254;12.988;2023-05-10T02:25:21;20.00;;;9.15;;
5823;SDS011;2938;52.254;12.988;2023-05-10T02:27:48;11.55;;;9.45;;
5823;SDS011;2938;52.254;12.988;2023-05-10T02:30:14;10.52;;;8.50;;
5823;SDS011;2938;52.254;12.988;2023-05-10T02:32:39;9.63;;;7.93;;
5823;SDS011;2938;52.254;12.988;2023-05-10T02:35:06;9.68;;;8.30;;
5823;SDS011;2938;52.254;12.988;2023-05-10T02:37:32;15.00;;;8.40;;
5823;SDS011;2938;52.254;12.988;2023-05-10T02:39:58;9.75;;;8.13;;
5823;SDS011;2938;52.254;12.988;2023-05-10T02:42:25;14.38;;;9.23;;
5823;SDS011;2938;52.254;12.988;2023-05-10T02:44:53;13.00;;;9.02;;
5823;SDS011;2938;52.254;12.988;2023-05-10T02:47:20;13.02;;;8.68;;
5823;SDS011;2938;52.254;12.988;2023-05-10T02:49:46;17.40;;;9.18;;
5823;SDS011;2938;52.254;12.988;2023-05-10T02:52:11;11.48;;;8.63;;
5823;SDS011;2938;52.254;12.988;2023-05-10T02:54:43;10.02;;;8.43;;
5823;SDS011;2938;52.254;12.988;2023-05-10T02:57:09;14.15;;;8.10;;
5823;SDS011;2938;52.254;12.988;2023-05-10T02:59:36;12.85;;;8.27;;
5823;SDS011;2938;52.254;12.988;2023-05-10T03:02:01;12.65;;;7.53;;
5823;SDS011;2938;52.254;12.988;2023-05-10T03:04:28;15.88;;;9.50;;
5823;SDS011;2938;52.254;12.988;2023-05-10T03:06:53;12.52;;;8.63;;
5823;SDS011;2938;52.254;12.988;2023-05-10T03:09:18;11.23;;;8.85;;
5823;SDS011;2938;52.254;12.988;2023-05-10T03:14:34;12.80;;;9.88;;
5823;SDS011;2938;52.254;12.988;2023-05-10T03:20:11;20.63;;;9.43;;
5823;SDS011;2938;52.254;12.988;2023-05-10T03:22:46;20.30;;;9.50;;
5823;SDS011;2938;52.254;12.988;2023-05-10T03:25:12;12.07;;;8.70;;
5823;SDS011;2938;52.254;12.988;2023-05-10T03:27:41;19.75;;;9.63;;
5823;SDS011;2938;52.254;12.988;2023-05-10T03:30:08;10.43;;;8.82;;
5823;SDS011;2938;52.254;12.988;2023-05-10T03:32:36;16.23;;;10.32;;
5823;SDS011;2938;52.254;12.988;2023-05-10T03:35:06;11.20;;;8.68;;
5823;SDS011;2938;52.254;12.988;2023-05-10T03:37:33;12.55;;;9.50;;
5823;SDS011;2938;52.254;12.988;2023-05-10T03:39:58;12.40;;;9.32;;
5823;SDS011;2938;52.254;12.988;2023-05-10T03:42:23;16.15;;;10.40;;
5823;SDS011;2938;52.254;12.988;2023-05-10T03:44:48;12.90;;;9.38;;
5823;SDS011;2938;52.254;12.988;2023-05-10T03:47:14;14.98;;;10.50;;
5823;SDS011;2938;52.254;12.988;2023-05-10T03:49:40;11.43;;;9.10;;
5823;SDS011;2938;52.254;12.988;2023-05-10T03:52:05;13.13;;;9.90;;
5823;SDS011;2938;52.254;12.988;2023-05-10T03:54:31;21.20;;;10.48;;
5823;SDS011;2938;52.254;12.988;2023-05-10T03:56:57;14.60;;;9.63;;
5823;SDS011;2938;52.254;12.988;2023-05-10T03:59:22;14.38;;;9.82;;
5823;SDS011;2938;52.254;12.988;2023-05-10T04:01:47;13.25;;;9.82;;
5823;SDS011;2938;52.254;12.988;2023-05-10T04:04:13;15.98;;;10.50;;
5823;SDS011;2938;52.254;12.988;2023-05-10T04:06:38;16.23;;;10.23;;
5823;SDS011;2938;52.254;12.988;2023-05-10T04:09:03;14.93;;;11.20;;
5823;SDS011;2938;52.254;12.988;2023-05-10T04:11:29;14.20;;;10.07;;
5823;SDS011;2938;52.254;12.988;2023-05-10T04:13:54;15.65;;;10.90;;
5823;SDS011;2938;52.254;12.988;2023-05-10T04:16:19;15.60;;;10.10;;
5823;SDS011;2938;52.254;12.988;2023-05-10T04:18:45;15.07;;;10.38;;
5823;SDS011;2938;52.254;12.988;2023-05-10T04:21:11;13.73;;;9.90;;
5823;SDS011;2938;52.254;12.988;2023-05-10T04:23:37;13.15;;;10.80;;
5823;SDS011;2938;52.254;12.988;2023-05-10T04:26:02;19.15;;;11.18;;
5823;SDS011;2938;52.254;12.988;2023-05-10T04:28:28;16.55;;;10.70;;
5823;SDS011;2938;52.254;12.988;2023-05-10T04:30:53;14.00;;;10.63;;
5823;SDS011;2938;52.254;12.988;2023-05-10T04:33:18;18.88;;;11.57;;
5823;SDS011;2938;52.254;12.988;2023-05-10T04:35:43;20.52;;;10.55;;
5823;SDS011;2938;52.254;12.988;2023-05-10T04:38:10;13.07;;;10.48;;
5823;SDS011;2938;52.254;12.988;2023-05-10T04:40:35;16.30;;;11.27;;
5823;SDS011;2938;52.254;12.988;2023-05-10T04:43:00;14.55;;;10.50;;
5823;SDS011;2938;52.254;12.988;2023-05-10T04:45:26;13.88;;;10.73;;
5823;SDS011;2938;52.254;12.988;2023-05-10T04:47:51;15.27;;;10.80;;
5823;SDS011;2938;52.254;12.988;2023-05-10T04:50:16;17.17;;;10.93;;
5823;SDS011;2938;52.254;12.988;2023-05-10T04:52:42;19.67;;;11.38;;
5823;SDS011;2938;52.254;12.988;2023-05-10T04:55:07;20.92;;;11.05;;
5823;SDS011;2938;52.254;12.988;2023-05-10T04:57:34;18.10;;;11.55;;
5823;SDS011;2938;52.254;12.988;2023-05-10T04:59:59;16.50;;;11.38;;
5823;SDS011;2938;52.254;12.988;2023-05-10T05:02:25;18.63;;;10.68;;
5823;SDS011;2938;52.254;12.988;2023-05-10T05:04:50;17.45;;;10.68;;
5823;SDS011;2938;52.254;12.988;2023-05-10T05:07:15;24.73;;;10.20;;
5823;SDS011;2938;52.254;12.988;2023-05-10T05:09:41;15.25;;;10.43;;
5823;SDS011;2938;52.254;12.988;2023-05-10T05:12:06;12.00;;;9.35;;
5823;SDS011;2938;52.254;12.988;2023-05-10T05:14:31;15.07;;;8.55;;
5823;SDS011;2938;52.254;12.988;2023-05-10T05:16:57;12.73;;;9.50;;
5823;SDS011;2938;52.254;12.988;2023-05-10T05:19:22;13.30;;;8.55;;
5823;SDS011;2938;52.254;12.988;2023-05-10T05:21:48;9.13;;;7.93;;
5823;SDS011;2938;52.254;12.988;2023-05-10T05:24:13;11.25;;;8.68;;
5823;SDS011;2938;52.254;12.988;2023-05-10T05:26:38;19.00;;;9.00;;
5823;SDS011;2938;52.254;12.988;2023-05-10T05:29:04;16.63;;;7.75;;
5823;SDS011;2938;52.254;12.988;2023-05-10T05:31:29;11.68;;;7.85;;
5823;SDS011;2938;52.254;12.988;2023-05-10T05:33:54;9.45;;;8.38;;
5823;SDS011;2938;52.254;12.988;2023-05-10T05:36:20;11.55;;;7.15;;
5823;SDS011;2938;52.254;12.988;2023-05-10T05:38:45;8.35;;;6.80;;
5823;SDS011;2938;52.254;12.988;2023-05-10T05:41:11;11.57;;;7.35;;
5823;SDS011;2938;52.254;12.988;2023-05-10T05:43:36;15.68;;;6.78;;
5823;SDS011;2938;52.254;12.988;2023-05-10T05:46:01;12.57;;;6.68;;
5823;SDS011;2938;52.254;12.988;2023-05-10T05:48:26;15.52;;;5.90;;
5823;SDS011;2938;52.254;12.988;2023-05-10T05:50:55;7.00;;;5.43;;
5823;SDS011;2938;52.254;12.988;2023-05-10T05:53:21;11.23;;;5.88;;
5823;SDS011;2938;52.254;12.988;2023-05-10T05:55:57;9.32;;;4.95;;
5823;SDS011;2938;52.254;12.988;2023-05-10T05:58:23;7.47;;;5.80;;
5823;SDS011;2938;52.254;12.988;2023-05-10T06:00:49;10.07;;;5.55;;
5823;SDS011;2938;52.254;12.988;2023-05-10T06:03:15;5.93;;;5.32;;
5823;SDS011;2938;52.254;12.988;2023-05-10T06:05:46;6.13;;;5.00;;
5823;SDS011;2938;52.254;12.988;2023-05-10T06:08:11;5.85;;;5.25;;
5823;SDS011;2938;52.254;12.988;2023-05-10T06:10:37;7.88;;;5.03;;
5823;SDS011;2938;52.254;12.988;2023-05-10T06:13:02;7.15;;;4.90;;
5823;SDS011;2938;52.254;12.988;2023-05-10T06:15:28;5.90;;;5.30;;
5823;SDS011;2938;52.254;12.988;2023-05-10T06:17:53;6.07;;;4.65;;
5823;SDS011;2938;52.254;12.988;2023-05-10T06:20:18;10.07;;;4.72;;
5823;SDS011;2938;52.254;12.988;2023-05-10T06:22:43;9.13;;;5.38;;
5823;SDS011;2938;52.254;12.988;2023-05-10T06:25:09;8.93;;;4.65;;
5823;SDS011;2938;52.254;12.988;2023-05-10T06:27:34;6.75;;;4.85;;
5823;SDS011;2938;52.254;12.988;2023-05-10T06:30:00;8.13;;;5.40;;
5823;SDS011;2938;52.254;12.988;2023-05-10T06:32:28;5.70;;;5.15;;
5823;SDS011;2938;52.254;12.988;2023-05-10T06:34:54;9.10;;;5.00;;
5823;SDS011;2938;52.254;12.988;2023-05-10T06:37:19;15.43;;;4.32;;
5823;SDS011;2938;52.254;12.988;2023-05-10T06:39:45;9.10;;;4.90;;
5823;SDS011;2938;52.254;12.988;2023-05-10T06:42:10;14.25;;;5.40;;
5823;SDS011;2938;52.254;12.988;2023-05-10T06:44:35;6.65;;;4.68;;
5823;SDS011;2938;52.254;12.988;2023-05-10T06:47:01;6.03;;;3.42;;
5823;SDS011;2938;52.254;12.988;2023-05-10T06:49:26;8.10;;;3.60;;
5823;SDS011;2938;52.254;12.988;2023-05-10T06:51:51;6.83;;;4.30;;
5823;SDS011;2938;52.254;12.988;2023-05-10T06:54:17;6.70;;;4.40;;
5823;SDS011;2938;52.254;12.988;2023-05-10T06:56:42;4.53;;;3.75;;
5823;SDS011;2938;52.254;12.988;2023-05-10T06:59:10;12.30;;;4.68;;
5823;SDS011;2938;52.254;12.988;2023-05-10T07:01:40;8.05;;;3.17;;
5823;SDS011;2938;52.254;12.988;2023-05-10T07:04:10;6.22;;;3.55;;
5823;SDS011;2938;52.254;12.988;2023-05-10T07:06:36;4.00;;;3.60;;
5823;SDS011;2938;52.254;12.988;2023-05-10T07:09:01;6.80;;;2.67;;
5823;SDS011;2938;52.254;12.988;2023-05-10T07:11:27;6.40;;;3.90;;
5823;SDS011;2938;52.254;12.988;2023-05-10T07:13:55;4.55;;;3.65;;
5823;SDS011;2938;52.254;12.988;2023-05-10T07:16:21;4.10;;;3.50;;
5823;SDS011;2938;52.254;12.988;2023-05-10T07:18:46;6.45;;;4.00;;
5823;SDS011;2938;52.254;12.988;2023-05-10T07:21:11;8.40;;;4.57;;
5823;SDS011;2938;52.254;12.988;2023-05-10T07:23:37;7.90;;;4.03;;
5823;SDS011;2938;52.254;12.988;2023-05-10T07:26:02;5.63;;;3.47;;
5823;SDS011;2938;52.254;12.988;2023-05-10T07:28:28;4.57;;;3.38;;
5823;SDS011;2938;52.254;12.988;2023-05-10T07:30:53;11.13;;;4.10;;
5823;SDS011;2938;52.254;12.988;2023-05-10T07:33:18;9.50;;;4.37;;
5823;SDS011;2938;52.254;12.988;2023-05-10T07:35:43;7.28;;;3.70;;
5823;SDS011;2938;52.254;12.988;2023-05-10T07:38:09;4.80;;;3.67;;
5823;SDS011;2938;52.254;12.988;2023-05-10T07:40:36;9.43;;;3.97;;
5823;SDS011;2938;52.254;12.988;2023-05-10T07:43:01;5.30;;;3.33;;
5823;SDS011;2938;52.254;12.988;2023-05-10T07:45:29;7.03;;;3.38;;
5823;SDS011;2938;52.254;12.988;2023-05-10T07:47:54;11.07;;;3.35;;
5823;SDS011;2938;52.254;12.988;2023-05-10T07:50:20;7.38;;;3.95;;
5823;SDS011;2938;52.254;12.988;2023-05-10T07:52:46;5.85;;;3.83;;
5823;SDS011;2938;52.254;12.988;2023-05-10T07:55:11;5.20;;;3.28;;
5823;SDS011;2938;52.254;12.988;2023-05-10T07:57:37;4.72;;;3.25;;
5823;SDS011;2938;52.254;12.988;2023-05-10T08:00:02;6.57;;;3.80;;
5823;SDS011;2938;52.254;12.988;2023-05-10T08:02:28;5.82;;;3.25;;
5823;SDS011;2938;52.254;12.988;2023-05-10T08:04:54;4.68;;;3.53;;
5823;SDS011;2938;52.254;12.988;2023-05-10T08:07:20;4.50;;;3.67;;
5823;SDS011;2938;52.254;12.988;2023-05-10T08:09:46;8.87;;;4.87;;
5823;SDS011;2938;52.254;12.988;2023-05-10T08:12:11;4.90;;;3.22;;
5823;SDS011;2938;52.254;12.988;2023-05-10T08:14:36;9.37;;;3.30;;
5823;SDS011;2938;52.254;12.988;2023-05-10T08:17:02;7.43;;;3.85;;
5823;SDS011;2938;52.254;12.988;2023-05-10T08:19:28;4.15;;;3.42;;
5823;SDS011;2938;52.254;12.988;2023-05-10T08:21:53;3.38;;;3.05;;
5823;SDS011;2938;52.254;12.988;2023-05-10T08:24:20;4.10;;;2.95;;
5823;SDS011;2938;52.254;12.988;2023-05-10T08:26:46;10.68;;;7.22;;
5823;SDS011;2938;52.254;12.988;2023-05-10T08:29:12;10.65;;;3.70;;
5823;SDS011;2938;52.254;12.988;2023-05-10T08:31:38;5.18;;;2.78;;
5823;SDS011;2938;52.254;12.988;2023-05-10T08:34:03;9.73;;;4.37;;
5823;SDS011;2938;52.254;12.988;2023-05-10T08:36:28;5.10;;;3.73;;
5823;SDS011;2938;52.254;12.988;2023-05-10T08:38:54;9.85;;;4.00;;
5823;SDS011;2938;52.254;12.988;2023-05-10T08:41:20;10.80;;;4.05;;
5823;SDS011;2938;52.254;12.988;2023-05-10T08:43:46;3.85;;;2.90;;
5823;SDS011;2938;52.254;12.988;2023-05-10T08:46:12;5.68;;;3.38;;
5823;SDS011;2938;52.254;12.988;2023-05-10T08:48:42;8.93;;;3.67;;
5823;SDS011;2938;52.254;12.988;2023-05-10T08:51:08;6.05;;;3.20;;
5823;SDS011;2938;52.254;12.988;2023-05-10T08:53:34;6.95;;;3.97;;
5823;SDS011;2938;52.254;12.988;2023-05-10T08:56:01;4.57;;;3.80;;
5823;SDS011;2938;52.254;12.988;2023-05-10T08:58:27;9.70;;;4.15;;
5823;SDS011;2938;52.254;12.988;2023-05-10T09:00:53;11.10;;;4.43;;
5823;SDS011;2938;52.254;12.988;2023-05-10T09:03:18;5.68;;;3.83;;
5823;SDS011;2938;52.254;12.988;2023-05-10T09:05:43;3.95;;;3.55;;
5823;SDS011;2938;52.254;12.988;2023-05-10T09:08:09;8.20;;;3.35;;
5823;SDS011;2938;52.254;12.988;2023-05-10T09:10:36;5.30;;;3.88;;
5823;SDS011;2938;52.254;12.988;2023-05-10T09:13:03;5.93;;;3.35;;
5823;SDS011;2938;52.254;12.988;2023-05-10T09:15:29;7.97;;;3.47;;
5823;SDS011;2938;52.254;12.988;2023-05-10T09:17:54;4.23;;;3.83;;
5823;SDS011;2938;52.254;12.988;2023-05-10T09:20:20;4.55;;;3.50;;
5823;SDS011;2938;52.254;12.988;2023-05-10T09:22:46;5.45;;;3.30;;
5823;SDS011;2938;52.254;12.988;2023-05-10T09:25:13;6.40;;;3.70;;
5823;SDS011;2938;52.254;12.988;2023-05-10T09:27:40;4.82;;;3.58;;
5823;SDS011;2938;52.254;12.988;2023-05-10T09:30:06;3.90;;;3.00;;
5823;SDS011;2938;52.254;12.988;2023-05-10T09:32:36;4.32;;;2.97;;
5823;SDS011;2938;52.254;12.988;2023-05-10T09:35:13;4.63;;;3.90;;
5823;SDS011;2938;52.254;12.988;2023-05-10T09:37:39;3.97;;;2.80;;
5823;SDS011;2938;52.254;12.988;2023-05-10T09:40:16;5.30;;;3.92;;
5823;SDS011;2938;52.254;12.988;2023-05-10T09:42:42;9.98;;;3.30;;
5823;SDS011;2938;52.254;12.988;2023-05-10T09:45:15;5.95;;;3.50;;
5823;SDS011;2938;52.254;12.988;2023-05-10T09:47:40;5.45;;;3.78;;
5823;SDS011;2938;52.254;12.988;2023-05-10T09:50:06;7.43;;;3.13;;
5823;SDS011;2938;52.254;12.988;2023-05-10T09:55:12;3.97;;;3.47;;
5823;SDS011;2938;52.254;12.988;2023-05-10T09:57:37;6.72;;;3.63;;
5823;SDS011;2938;52.254;12.988;2023-05-10T10:00:04;4.70;;;3.72;;
5823;SDS011;2938;52.254;12.988;2023-05-10T10:02:30;6.68;;;3.97;;
5823;SDS011;2938;52.254;12.988;2023-05-10T10:04:56;6.18;;;3.70;;
5823;SDS011;2938;52.254;12.988;2023-05-10T10:07:22;6.43;;;3.28;;
5823;SDS011;2938;52.254;12.988;2023-05-10T10:09:48;5.30;;;3.10;;
5823;SDS011;2938;52.254;12.988;2023-05-10T10:12:14;6.95;;;3.47;;
5823;SDS011;2938;52.254;12.988;2023-05-10T10:14:39;4.43;;;3.43;;
5823;SDS011;2938;52.254;12.988;2023-05-10T10:17:05;4.55;;;3.70;;
5823;SDS011;2938;52.254;12.988;2023-05-10T10:19:33;14.38;;;3.65;;
5823;SDS011;2938;52.254;12.988;2023-05-10T10:24:57;5.18;;;3.53;;
5823;SDS011;2938;52.254;12.988;2023-05-10T10:28:02;4.18;;;3.50;;
5823;SDS011;2938;52.254;12.988;2023-05-10T10:33:55;5.53;;;3.13;;
5823;SDS011;2938;52.254;12.988;2023-05-10T10:42:57;7.47;;;3.65;;
5823;SDS011;2938;52.254;12.988;2023-05-10T10:45:28;6.07;;;3.55;;
5823;SDS011;2938;52.254;12.988;2023-05-10T10:48:19;10.40;;;3.97;;
5823;SDS011;2938;52.254;12.988;2023-05-10T10:50:55;4.32;;;3.92;;
5823;SDS011;2938;52.254;12.988;2023-05-10T10:53:27;13.35;;;3.55;;
5823;SDS011;2938;52.254;12.988;2023-05-10T10:56:08;12.88;;;3.88;;
5823;SDS011;2938;52.254;12.988;2023-05-10T10:58:38;8.10;;;3.40;;
5823;SDS011;2938;52.254;12.988;2023-05-10T11:01:10;8.25;;;3.63;;
5823;SDS011;2938;52.254;12.988;2023-05-10T11:03:36;15.25;;;3.53;;
5823;SDS011;2938;52.254;12.988;2023-05-10T11:06:01;7.57;;;3.80;;
5823;SDS011;2938;52.254;12.988;2023-05-10T11:11:03;3.83;;;3.50;;
5823;SDS011;2938;52.254;12.988;2023-05-10T11:13:44;11.88;;;3.40;;
5823;SDS011;2938;52.254;12.988;2023-05-10T11:18:56;6.80;;;3.92;;
5823;SDS011;2938;52.254;12.988;2023-05-10T11:21:30;5.43;;;3.65;;
5823;SDS011;2938;52.254;12.988;2023-05-10T11:23:57;5.65;;;3.22;;
5823;SDS011;2938;52.254;12.988;2023-05-10T11:26:31;6.78;;;3.45;;
5823;SDS011;2938;52.254;12.988;2023-05-10T11:29:07;4.57;;;3.72;;
5823;SDS011;2938;52.254;12.988;2023-05-10T11:31:45;7.82;;;3.75;;
5823;SDS011;2938;52.254;12.988;2023-05-10T11:34:28;5.60;;;3.42;;
5823;SDS011;2938;52.254;12.988;2023-05-10T11:37:01;6.45;;;3.50;;
5823;SDS011;2938;52.254;12.988;2023-05-10T11:39:27;14.00;;;4.95;;
5823;SDS011;2938;52.254;12.988;2023-05-10T11:41:59;8.23;;;3.40;;
5823;SDS011;2938;52.254;12.988;2023-05-10T11:47:29;3.72;;;3.42;;
5823;SDS011;2938;52.254;12.988;2023-05-10T11:50:01;3.97;;;3.58;;
5823;SDS011;2938;52.254;12.988;2023-05-10T11:52:26;4.47;;;3.80;;
5823;SDS011;2938;52.254;12.988;2023-05-10T11:54:52;5.60;;;3.88;;
5823;SDS011;2938;52.254;12.988;2023-05-10T11:57:25;6.25;;;3.70;;
5823;SDS011;2938;52.254;12.988;2023-05-10T11:59:55;7.22;;;3.25;;
5823;SDS011;2938;52.254;12.988;2023-05-10T12:02:21;5.78;;;3.42;;
5823;SDS011;2938;52.254;12.988;2023-05-10T12:04:46;6.80;;;3.40;;
5823;SDS011;2938;52.254;12.988;2023-05-10T12:07:12;7.20;;;3.35;;
5823;SDS011;2938;52.254;12.988;2023-05-10T12:09:43;5.07;;;4.13;;
5823;SDS011;2938;52.254;12.988;2023-05-10T12:12:09;7.07;;;3.70;;
5823;SDS011;2938;52.254;12.988;2023-05-10T12:14:43;3.65;;;3.33;;
5823;SDS011;2938;52.254;12.988;2023-05-10T12:36:32;17.48;;;4.18;;
5823;SDS011;2938;52.254;12.988;2023-05-10T12:39:46;11.55;;;4.10;;
5823;SDS011;2938;52.254;12.988;2023-05-10T12:42:21;6.20;;;3.30;;
5823;SDS011;2938;52.254;12.988;2023-05-10T12:44:54;4.50;;;3.95;;
5823;SDS011;2938;52.254;12.988;2023-05-10T12:47:23;7.45;;;3.60;;
5823;SDS011;2938;52.254;12.988;2023-05-10T12:49:51;5.53;;;4.68;;
5823;SDS011;2938;52.254;12.988;2023-05-10T12:55:36;6.80;;;4.32;;
5823;SDS011;2938;52.254;12.988;2023-05-10T12:58:14;5.28;;;3.70;;
5823;SDS011;2938;52.254;12.988;2023-05-10T13:00:51;6.20;;;4.53;;
5823;SDS011;2938;52.254;12.988;2023-05-10T13:03:25;9.68;;;4.68;;
5823;SDS011;2938;52.254;12.988;2023-05-10T13:06:08;6.90;;;3.58;;
5823;SDS011;2938;52.254;12.988;2023-05-10T13:09:01;8.32;;;4.55;;
5823;SDS011;2938;52.254;12.988;2023-05-10T13:11:30;4.35;;;3.65;;
5823;SDS011;2938;52.254;12.988;2023-05-10T13:14:31;4.45;;;3.97;;
5823;SDS011;2938;52.254;12.988;2023-05-10T13:16:56;5.80;;;3.63;;
5823;SDS011;2938;52.254;12.988;2023-05-10T13:19:22;7.15;;;4.38;;
5823;SDS011;2938;52.254;12.988;2023-05-10T13:21:47;7.05;;;3.88;;
5823;SDS011;2938;52.254;12.988;2023-05-10T13:24:18;8.25;;;4.63;;
5823;SDS011;2938;52.254;12.988;2023-05-10T13:26:43;6.90;;;4.25;;
5823;SDS011;2938;52.254;12.988;2023-05-10T13:29:14;5.57;;;3.97;;
5823;SDS011;2938;52.254;12.988;2023-05-10T13:31:42;6.15;;;3.30;;
5823;SDS011;2938;52.254;12.988;2023-05-10T13:34:07;8.05;;;3.90;;
5823;SDS011;2938;52.254;12.988;2023-05-10T13:36:33;10.02;;;4.57;;
5823;SDS011;2938;52.254;12.988;2023-05-10T13:39:03;8.82;;;4.22;;
5823;SDS011;2938;52.254;12.988;2023-05-10T13:41:39;4.93;;;4.43;;
5823;SDS011;2938;52.254;12.988;2023-05-10T13:44:04;7.65;;;4.28;;
5823;SDS011;2938;52.254;12.988;2023-05-10T13:46:50;7.55;;;4.00;;
5823;SDS011;2938;52.254;12.988;2023-05-10T13:49:15;6.15;;;3.78;;
5823;SDS011;2938;52.254;12.988;2023-05-10T13:51:48;4.07;;;3.42;;
5823;SDS011;2938;52.254;12.988;2023-05-10T13:54:23;5.00;;;4.10;;
5823;SDS011;2938;52.254;12.988;2023-05-10T13:56:52;5.18;;;4.07;;
5823;SDS011;2938;52.254;12.988;2023-05-10T14:08:21;14.55;;;6.07;;
5823;SDS011;2938;52.254;12.988;2023-05-10T14:17:47;5.70;;;5.07;;
5823;SDS011;2938;52.254;12.988;2023-05-10T14:20:47;10.75;;;6.10;;
5823;SDS011;2938;52.254;12.988;2023-05-10T15:08:09;55.33;;;9.43;;
5823;SDS011;2938;52.254;12.988;2023-05-10T15:41:33;6.68;;;5.60;;
5823;SDS011;2938;52.254;12.988;2023-05-10T15:44:06;9.82;;;5.63;;
5823;SDS011;2938;52.254;12.988;2023-05-10T15:46:31;7.15;;;6.18;;
5823;SDS011;2938;52.254;12.988;2023-05-10T15:48:59;14.82;;;4.85;;
5823;SDS011;2938;52.254;12.988;2023-05-10T15:51:32;17.90;;;5.50;;
5823;SDS011;2938;52.254;12.988;2023-05-10T15:57:36;6.63;;;5.82;;
5823;SDS011;2938;52.254;12.988;2023-05-10T16:00:07;6.88;;;4.90;;
5823;SDS011;2938;52.254;12.988;2023-05-10T16:02:33;7.47;;;5.53;;
5823;SDS011;2938;52.254;12.988;2023-05-10T16:04:59;5.75;;;5.18;;
5823;SDS011;2938;52.254;12.988;2023-05-10T16:07:24;7.63;;;5.80;;
5823;SDS011;2938;52.254;12.988;2023-05-10T16:09:50;6.80;;;6.10;;
5823;SDS011;2938;52.254;12.988;2023-05-10T16:12:15;6.18;;;5.55;;
5823;SDS011;2938;52.254;12.988;2023-05-10T16:14:41;6.07;;;5.55;;
5823;SDS011;2938;52.254;12.988;2023-05-10T16:17:06;11.48;;;5.32;;
5823;SDS011;2938;52.254;12.988;2023-05-10T16:19:31;5.60;;;5.10;;
5823;SDS011;2938;52.254;12.988;2023-05-10T16:21:57;5.65;;;5.10;;
5823;SDS011;2938;52.254;12.988;2023-05-10T16:24:22;5.80;;;4.88;;
5823;SDS011;2938;52.254;12.988;2023-05-10T16:26:59;5.85;;;5.32;;
5823;SDS011;2938;52.254;12.988;2023-05-10T16:29:25;8.23;;;5.00;;
5823;SDS011;2938;52.254;12.988;2023-05-10T16:31:53;7.35;;;6.35;;
5823;SDS011;2938;52.254;12.988;2023-05-10T16:34:18;10.13;;;5.90;;
5823;SDS011;2938;52.254;12.988;2023-05-10T16:54:16;5.55;;;5.00;;
5823;SDS011;2938;52.254;12.988;2023-05-10T17:20:59;4.28;;;3.88;;
5823;SDS011;2938;52.254;12.988;2023-05-10T17:26:50;18.65;;;5.10;;
5823;SDS011;2938;52.254;12.988;2023-05-10T17:46:18;6.20;;;5.07;;
5823;SDS011;2938;52.254;12.988;2023-05-10T17:48:56;6.15;;;4.88;;
5823;SDS011;2938;52.254;12.988;2023-05-10T17:51:24;10.25;;;5.43;;
5823;SDS011;2938;52.254;12.988;2023-05-10T17:57:00;9.07;;;4.25;;
5823;SDS011;2938;52.254;12.988;2023-05-10T18:02:36;11.35;;;4.20;;
5823;SDS011;2938;52.254;12.988;2023-05-10T18:05:02;4.57;;;4.18;;
5823;SDS011;2938;52.254;12.988;2023-05-10T18:07:41;8.43;;;4.68;;
5823;SDS011;2938;52.254;12.988;2023-05-10T18:10:09;5.55;;;5.05;;
5823;SDS011;2938;52.254;12.988;2023-05-10T18:12:35;4.90;;;3.88;;
5823;SDS011;2938;52.254;12.988;2023-05-10T18:18:27;4.53;;;3.28;;
5823;SDS011;2938;52.254;12.988;2023-05-10T18:21:06;4.15;;;3.40;;
5823;SDS011;2938;52.254;12.988;2023-05-10T18:23:31;7.38;;;4.25;;
5823;SDS011;2938;52.254;12.988;2023-05-10T18:25:57;3.20;;;2.90;;
5823;SDS011;2938;52.254;12.988;2023-05-10T18:28:31;3.28;;;2.97;;
5823;SDS011;2938;52.254;12.988;2023-05-10T18:34:34;2.97;;;2.67;;
5823;SDS011;2938;52.254;12.988;2023-05-10T18:37:12;4.45;;;3.20;;
5823;SDS011;2938;52.254;12.988;2023-05-10T18:39:43;7.22;;;3.30;;
5823;SDS011;2938;52.254;12.988;2023-05-10T18:42:25;4.10;;;2.97;;
5823;SDS011;2938;52.254;12.988;2023-05-10T18:45:14;3.15;;;2.85;;
5823;SDS011;2938;52.254;12.988;2023-05-10T18:47:42;6.60;;;3.15;;
5823;SDS011;2938;52.254;12.988;2023-05-10T18:50:07;4.45;;;3.25;;
5823;SDS011;2938;52.254;12.988;2023-05-10T18:52:33;3.58;;;3.28;;
5823;SDS011;2938;52.254;12.988;2023-05-10T18:55:01;6.45;;;3.20;;
5823;SDS011;2938;52.254;12.988;2023-05-10T18:57:27;8.93;;;3.42;;